Terminal Aerodrome Forecast
Issued by NWS Wilmington, NC

Home | Current Version | Previous Version | Text Only | Print | Product List | Glossary On
Versions: 1 2 3 4 5 6 7 8 9 10 11 12 13 14
000
FTUS42 KILM 211700
TAFMYR
TAF
KMYR 211725Z 2118/2218 30008KT P6SM SKC
     FM220300 34010G15KT P6SM SKC
     FM221100 33012G18KT P6SM SKC=

USA.gov is the U.S. government's official web portal to all federal, state and local government web resources and services.